createdAt,value
2022-07-29T00:01:44.145Z,100424.81
2022-07-29T00:04:14.619Z,100435.03
2022-07-29T00:06:43.599Z,100434.59
2022-07-29T00:09:11.932Z,100433.25
2022-07-29T00:11:40.282Z,100433.69
2022-07-29T00:14:08.617Z,100438.53
2022-07-29T00:16:37.396Z,100442.59
2022-07-29T00:19:05.855Z,100444.75
2022-07-29T00:21:37.477Z,100432.78
2022-07-29T00:24:06.377Z,100435.91
2022-07-29T00:26:34.754Z,100428.34
2022-07-29T00:29:33.027Z,100426.88
2022-07-29T00:31:54.929Z,100420.16
2022-07-29T00:34:40.698Z,100424.88
2022-07-29T00:37:10.467Z,100422.44
2022-07-29T00:39:38.778Z,100410.03
2022-07-29T00:42:07.969Z,100413.69
2022-07-29T00:44:40.124Z,100420.69
2022-07-29T00:47:09.930Z,100413.69
2022-07-29T00:49:38.670Z,100419.13
2022-07-29T00:52:10.553Z,100418.47
2022-07-29T00:54:44.809Z,100411.44
2022-07-29T00:57:14.208Z,100409.84
2022-07-29T00:59:43.577Z,100409.84
2022-07-29T01:02:12.166Z,100400.03
2022-07-29T01:04:41.122Z,100401.75
2022-07-29T01:07:11.732Z,100398.13
2022-07-29T01:09:45.664Z,100389.16
2022-07-29T01:12:17.099Z,100387.44
2022-07-29T01:14:46.432Z,100386.59
2022-07-29T01:17:22.790Z,100382.13
2022-07-29T01:20:00.292Z,100387.44
2022-07-29T01:22:43.826Z,100386.69
2022-07-29T01:25:45.708Z,100378.06
2022-07-29T01:29:05.357Z,100381.09
2022-07-29T01:31:58.541Z,100376.81
2022-07-29T01:34:37.294Z,100379.59
2022-07-29T01:37:15.092Z,100380.66
2022-07-29T01:39:46.729Z,100381.72
2022-07-29T01:42:25.872Z,100381.94
2022-07-29T01:45:01.585Z,100365.94
2022-07-29T01:47:40.933Z,100371.50
2022-07-29T01:50:14.802Z,100361.06
2022-07-29T01:52:51.630Z,100363.09
2022-07-29T01:55:22.400Z,100358.09
2022-07-29T01:57:51.741Z,100355.50
2022-07-29T02:00:22.396Z,100348.56
2022-07-29T02:02:52.584Z,100354.25
2022-07-29T02:05:25.246Z,100357.22
2022-07-29T02:07:56.931Z,100356.50
2022-07-29T02:10:31.817Z,100348.72
2022-07-29T02:13:00.617Z,100337.59
2022-07-29T02:15:34.589Z,100340.41
2022-07-29T02:18:09.198Z,100337.19
2022-07-29T02:20:39.824Z,100346.38
2022-07-29T02:23:11.680Z,100351.03
2022-07-29T02:25:40.841Z,100350.41
2022-07-29T02:28:10.557Z,100355.09
2022-07-29T02:30:45.210Z,100354.31
2022-07-29T02:33:17.678Z,100351.03
2022-07-29T02:35:49.638Z,100351.25
2022-07-29T02:38:36.566Z,100360.41
2022-07-29T02:41:12.303Z,100365.09
2022-07-29T02:43:41.440Z,100366.88
2022-07-29T02:46:29.088Z,100367.97
2022-07-29T02:49:06.278Z,100359.31
2022-07-29T02:51:44.965Z,100364.84
2022-07-29T02:54:28.223Z,100366.78
2022-07-29T02:57:00.080Z,100367.00
2022-07-29T02:59:32.969Z,100360.16
2022-07-29T03:02:04.252Z,100362.06
2022-07-29T03:04:34.341Z,100351.81
2022-07-29T03:07:03.872Z,100348.41
2022-07-29T03:09:32.754Z,100356.59
2022-07-29T03:12:02.230Z,100356.03
2022-07-29T03:14:32.362Z,100357.06
2022-07-29T03:17:02.816Z,100347.69
2022-07-29T03:19:31.297Z,100357.69
2022-07-29T03:22:00.451Z,100355.34
2022-07-29T03:24:35.207Z,100349.34
2022-07-29T03:27:04.924Z,100351.50
2022-07-29T03:29:34.782Z,100348.91
2022-07-29T03:32:08.651Z,100346.38
2022-07-29T03:34:39.128Z,100352.75
2022-07-29T03:37:08.424Z,100358.25
2022-07-29T03:39:43.380Z,100356.75
2022-07-29T03:42:17.279Z,100362.25
2022-07-29T03:44:49.429Z,100365.97
2022-07-29T03:47:43.438Z,100350.97
2022-07-29T03:50:16.678Z,100360.75
2022-07-29T03:52:45.654Z,100356.41
2022-07-29T03:55:14.910Z,100356.47
2022-07-29T03:57:43.849Z,100360.09
2022-07-29T04:00:13.652Z,100363.72
2022-07-29T04:02:47.866Z,100363.72
2022-07-29T04:05:17.420Z,100362.84
2022-07-29T04:07:46.652Z,100366.38
2022-07-29T04:10:16.502Z,100360.31
2022-07-29T04:12:45.208Z,100370.09
2022-07-29T04:15:13.940Z,100368.34
2022-07-29T04:17:43.973Z,100370.09
2022-07-29T04:20:14.210Z,100369.25
2022-07-29T04:22:42.714Z,100369.25
2022-07-29T04:25:11.179Z,100371.00
2022-07-29T04:27:59.667Z,100368.34
2022-07-29T04:30:28.392Z,100373.69
2022-07-29T04:32:58.151Z,100370.94
2022-07-29T04:35:27.028Z,100369.13
2022-07-29T04:37:55.671Z,100379.69
2022-07-29T04:40:24.057Z,100380.53
2022-07-29T04:42:52.530Z,100375.09
2022-07-29T04:45:23.192Z,100374.16
2022-07-29T04:47:51.654Z,100369.50
2022-07-29T04:50:21.426Z,100367.56
2022-07-29T04:52:49.705Z,100376.31
2022-07-29T04:55:18.049Z,100376.09
2022-07-29T04:57:46.417Z,100373.38
2022-07-29T05:00:15.751Z,100373.16
2022-07-29T05:02:44.182Z,100372.13
2022-07-29T05:05:12.543Z,100371.78
2022-07-29T05:07:44.761Z,100374.25
2022-07-29T05:10:13.732Z,100374.81
2022-07-29T05:12:42.077Z,100388.75
2022-07-29T05:15:12.157Z,100380.59
2022-07-29T05:17:40.828Z,100377.72
2022-07-29T05:20:10.818Z,100379.22
2022-07-29T05:22:39.288Z,100381.59
2022-07-29T05:25:10.657Z,100374.25
2022-07-29T05:27:39.016Z,100378.44
2022-07-29T05:30:09.156Z,100384.31
2022-07-29T05:32:37.548Z,100389.34
2022-07-29T05:35:06.858Z,100386.34
2022-07-29T05:37:35.833Z,100390.41
2022-07-29T05:40:04.716Z,100396.38
2022-07-29T05:42:34.909Z,100395.09
2022-07-29T05:45:04.229Z,100400.00
2022-07-29T05:47:32.693Z,100395.16
2022-07-29T05:50:01.305Z,100395.66
2022-07-29T05:52:29.834Z,100398.78
2022-07-29T05:54:58.427Z,100392.91
2022-07-29T05:57:26.943Z,100399.63
2022-07-29T05:59:56.567Z,100400.91
2022-07-29T06:02:24.917Z,100396.97
2022-07-29T06:04:53.266Z,100409.84
2022-07-29T06:07:21.658Z,100407.75
2022-07-29T06:09:49.928Z,100409.03
2022-07-29T06:12:18.185Z,100408.38
2022-07-29T06:14:48.158Z,100410.41
2022-07-29T06:17:20.626Z,100412.41
2022-07-29T06:19:48.945Z,100412.47
2022-07-29T06:22:18.122Z,100410.75
2022-07-29T06:24:46.453Z,100410.72
2022-07-29T06:27:14.910Z,100410.72
2022-07-29T06:29:43.259Z,100417.69
2022-07-29T06:32:11.624Z,100417.72
2022-07-29T06:34:41.367Z,100409.78
2022-07-29T06:37:15.423Z,100415.88
2022-07-29T06:39:44.163Z,100407.91
2022-07-29T06:42:12.584Z,100412.56
2022-07-29T06:44:40.821Z,100410.41
2022-07-29T06:47:09.327Z,100402.06
2022-07-29T06:49:37.635Z,100403.28
2022-07-29T06:52:07.884Z,100417.03
2022-07-29T06:54:36.227Z,100410.25
2022-07-29T06:57:04.601Z,100416.81
2022-07-29T06:59:35.768Z,100409.75
2022-07-29T07:02:04.542Z,100417.03
2022-07-29T07:04:33.180Z,100426.16
2022-07-29T07:07:01.589Z,100427.41
2022-07-29T07:09:40.522Z,100433.13
2022-07-29T07:12:09.859Z,100434.09
2022-07-29T07:14:38.182Z,100434.59
2022-07-29T07:17:07.999Z,100446.38
2022-07-29T07:19:36.407Z,100450.50
2022-07-29T07:22:04.852Z,100448.22
2022-07-29T07:24:34.523Z,100445.72
2022-07-29T07:27:02.813Z,100451.06
2022-07-29T07:29:31.222Z,100448.22
2022-07-29T07:32:01.049Z,100447.09
2022-07-29T07:34:30.979Z,100439.00
2022-07-29T07:36:59.277Z,100441.78
2022-07-29T07:39:27.959Z,100439.53
2022-07-29T07:41:57.628Z,100441.94
2022-07-29T07:44:26.063Z,100426.53
2022-07-29T07:46:54.835Z,100438.44
2022-07-29T07:49:23.278Z,100440.69
2022-07-29T07:51:51.853Z,100430.47
2022-07-29T07:54:20.737Z,100430.75
2022-07-29T07:56:53.006Z,100439.22
2022-07-29T07:59:23.103Z,100435.56
2022-07-29T08:01:56.364Z,100437.56
2022-07-29T08:04:28.449Z,100434.16
2022-07-29T08:06:58.545Z,100434.06
2022-07-29T08:09:30.281Z,100438.72
2022-07-29T08:11:59.973Z,100441.84
2022-07-29T08:14:29.906Z,100430.25
2022-07-29T08:16:58.239Z,100436.47
2022-07-29T08:19:26.627Z,100434.16
2022-07-29T08:21:55.522Z,100429.84
2022-07-29T08:24:42.008Z,100436.25
2022-07-29T08:27:33.528Z,100436.97
2022-07-29T08:30:00.180Z,100437.03
2022-07-29T08:32:51.876Z,100441.75
2022-07-29T08:35:17.980Z,100442.97
2022-07-29T08:37:46.276Z,100446.97
2022-07-29T08:40:15.561Z,100449.78
2022-07-29T08:42:43.883Z,100448.25
2022-07-29T08:45:13.986Z,100442.44
2022-07-29T08:47:42.520Z,100450.72
2022-07-29T08:50:12.204Z,100438.03
2022-07-29T08:52:43.004Z,100444.00
2022-07-29T08:55:12.280Z,100448.84
2022-07-29T08:57:51.179Z,100449.09
2022-07-29T09:00:26.350Z,100454.88
2022-07-29T09:03:00.215Z,100452.25
2022-07-29T09:05:29.572Z,100461.06
2022-07-29T09:07:58.328Z,100454.19
2022-07-29T09:10:26.928Z,100448.25
2022-07-29T09:12:57.321Z,100446.56
2022-07-29T09:15:27.409Z,100452.25
2022-07-29T09:17:56.323Z,100445.13
2022-07-29T09:20:25.353Z,100445.00
2022-07-29T09:22:54.892Z,100442.91
2022-07-29T09:25:36.416Z,100441.00
2022-07-29T09:28:09.729Z,100440.94
2022-07-29T09:30:53.029Z,100437.25
2022-07-29T09:33:22.432Z,100442.66
2022-07-29T09:36:02.236Z,100436.22
2022-07-29T09:38:32.652Z,100431.13
2022-07-29T09:41:05.849Z,100440.09
2022-07-29T09:43:35.652Z,100426.41
2022-07-29T09:46:14.015Z,100432.31
2022-07-29T09:48:42.765Z,100437.03
2022-07-29T09:51:24.149Z,100432.28
2022-07-29T09:53:55.348Z,100430.97
2022-07-29T09:56:41.159Z,100429.47
2022-07-29T09:59:12.253Z,100426.66
2022-07-29T10:01:42.034Z,100432.53
2022-07-29T10:04:10.564Z,100427.16
2022-07-29T10:07:04.231Z,100430.25
2022-07-29T10:09:34.182Z,100429.50
2022-07-29T10:12:14.656Z,100428.47
2022-07-29T10:14:44.596Z,100424.13
2022-07-29T10:17:14.393Z,100424.41
2022-07-29T10:19:43.341Z,100426.91
2022-07-29T10:22:12.881Z,100427.34
2022-07-29T10:24:41.973Z,100432.09
2022-07-29T10:27:11.222Z,100434.38
2022-07-29T10:29:39.525Z,100425.44
2022-07-29T10:32:31.479Z,100436.25
2022-07-29T10:35:17.705Z,100427.34
2022-07-29T10:38:17.320Z,100422.09
2022-07-29T10:41:19.542Z,100416.47
2022-07-29T10:43:51.418Z,100407.38
2022-07-29T10:46:20.851Z,100419.53
2022-07-29T10:49:15.179Z,100414.22
2022-07-29T10:51:59.794Z,100406.63
2022-07-29T10:54:51.533Z,100412.59
2022-07-29T10:57:53.926Z,100407.56
2022-07-29T11:00:34.399Z,100403.31
2022-07-29T11:03:04.820Z,100406.66
2022-07-29T11:05:59.627Z,100405.78
2022-07-29T11:08:28.944Z,100403.75
2022-07-29T11:11:34.902Z,100407.28
2022-07-29T11:14:03.416Z,100397.69
2022-07-29T11:17:05.842Z,100393.31
2022-07-29T11:19:37.208Z,100389.97
2022-07-29T11:22:12.373Z,100386.47
2022-07-29T11:24:50.249Z,100381.81
2022-07-29T11:27:23.043Z,100391.88
2022-07-29T11:29:58.533Z,100390.00
2022-07-29T11:32:37.089Z,100395.72
2022-07-29T11:35:37.179Z,100390.22
2022-07-29T11:38:31.942Z,100394.78
2022-07-29T11:41:27.407Z,100387.38
2022-07-29T11:43:58.429Z,100393.25
2022-07-29T11:46:47.984Z,100392.22
2022-07-29T11:49:32.207Z,100389.50
2022-07-29T11:52:03.692Z,100383.06
2022-07-29T11:54:52.524Z,100378.47
2022-07-29T11:57:36.709Z,100381.22
2022-07-29T12:00:12.706Z,100376.94
2022-07-29T12:02:48.654Z,100377.53
2022-07-29T12:05:36.384Z,100375.75
2022-07-29T12:08:14.598Z,100369.81
2022-07-29T12:10:45.280Z,100357.09
2022-07-29T12:13:15.733Z,100356.31
2022-07-29T12:15:47.379Z,100348.97
2022-07-29T12:18:23.956Z,100348.88
2022-07-29T12:21:03.275Z,100345.50
2022-07-29T12:23:34.281Z,100343.66
2022-07-29T12:26:10.937Z,100354.34
2022-07-29T12:28:50.790Z,100347.81
2022-07-29T12:31:43.988Z,100346.09
2022-07-29T12:34:07.709Z,100346.06
2022-07-29T12:36:36.205Z,100347.44
2022-07-29T12:39:05.180Z,100349.72
2022-07-29T12:41:35.621Z,100349.09
2022-07-29T12:44:04.540Z,100353.66
2022-07-29T12:46:33.059Z,100350.25
2022-07-29T12:49:04.049Z,100346.25
2022-07-29T12:51:34.805Z,100338.56
2022-07-29T12:54:11.237Z,100344.06
2022-07-29T12:56:43.554Z,100332.16
2022-07-29T12:59:23.220Z,100336.34
2022-07-29T13:01:54.348Z,100334.16
2022-07-29T13:04:31.408Z,100331.16
2022-07-29T13:07:06.917Z,100321.56
2022-07-29T13:09:43.902Z,100315.66
2022-07-29T13:12:15.375Z,100316.38
2022-07-29T13:14:46.137Z,100324.75
2022-07-29T13:17:17.122Z,100326.91
2022-07-29T13:19:48.451Z,100326.94
2022-07-29T13:22:20.285Z,100325.31
2022-07-29T13:24:51.262Z,100317.72
2022-07-29T13:27:22.770Z,100312.31
2022-07-29T13:29:52.317Z,100326.31
2022-07-29T13:32:28.392Z,100330.00
2022-07-29T13:34:58.359Z,100327.00
2022-07-29T13:37:27.220Z,100323.88
2022-07-29T13:39:56.834Z,100323.25
2022-07-29T13:42:26.960Z,100320.03
2022-07-29T13:44:55.316Z,100313.63
2022-07-29T13:47:32.342Z,100329.88
2022-07-29T13:50:01.978Z,100328.00
2022-07-29T13:52:30.810Z,100320.78
2022-07-29T13:54:59.247Z,100320.06
2022-07-29T13:57:30.832Z,100315.66
2022-07-29T13:59:59.413Z,100307.16
2022-07-29T14:02:27.892Z,100306.56
2022-07-29T14:04:56.792Z,100313.94
2022-07-29T14:07:25.287Z,100310.06
2022-07-29T14:09:53.715Z,100311.66
2022-07-29T14:12:22.179Z,100311.78
2022-07-29T14:14:51.885Z,100311.59
2022-07-29T14:17:20.359Z,100312.34
2022-07-29T14:19:48.854Z,100309.78
2022-07-29T14:22:19.596Z,100315.97
2022-07-29T14:24:50.735Z,100313.63
2022-07-29T14:27:20.064Z,100320.47
2022-07-29T14:30:10.232Z,100320.78
2022-07-29T14:32:38.585Z,100319.28
2022-07-29T14:35:08.765Z,100310.41
2022-07-29T14:37:40.181Z,100318.56
2022-07-29T14:40:11.249Z,100309.63
2022-07-29T14:42:40.303Z,100315.72
2022-07-29T14:45:11.685Z,100309.56
2022-07-29T14:47:41.339Z,100316.22
2022-07-29T14:50:11.470Z,100309.06
2022-07-29T14:52:40.155Z,100307.56
2022-07-29T14:55:16.487Z,100307.97
2022-07-29T14:57:48.657Z,100302.91
2022-07-29T15:00:19.303Z,100302.59
2022-07-29T15:03:03.315Z,100307.78
2022-07-29T15:05:32.146Z,100302.78
2022-07-29T15:08:01.428Z,100298.16
2022-07-29T15:10:30.374Z,100299.50
2022-07-29T15:12:59.268Z,100302.84
2022-07-29T15:15:29.103Z,100301.16
2022-07-29T15:17:57.395Z,100299.16
2022-07-29T15:20:27.996Z,100302.19
2022-07-29T15:22:57.380Z,100298.69
2022-07-29T15:25:26.313Z,100300.06
2022-07-29T15:28:01.237Z,100298.84
2022-07-29T15:30:34.276Z,100300.03
2022-07-29T15:33:04.135Z,100306.13
2022-07-29T15:35:32.621Z,100297.47
2022-07-29T15:38:00.946Z,100299.69
2022-07-29T15:40:29.583Z,100308.88
2022-07-29T15:42:58.250Z,100301.75
2022-07-29T15:45:26.680Z,100306.16
2022-07-29T15:48:01.831Z,100301.81
2022-07-29T15:50:30.163Z,100300.16
2022-07-29T15:52:58.487Z,100300.91
2022-07-29T15:55:27.184Z,100295.88
2022-07-29T15:58:00.310Z,100303.88
2022-07-29T16:00:29.227Z,100296.03
2022-07-29T16:02:57.634Z,100294.91
2022-07-29T16:05:29.551Z,100294.06
2022-07-29T16:07:59.639Z,100297.19
2022-07-29T16:10:28.123Z,100299.50
2022-07-29T16:12:56.451Z,100288.50
2022-07-29T16:15:25.033Z,100283.44
2022-07-29T16:17:53.336Z,100288.50
2022-07-29T16:20:22.393Z,100288.56
2022-07-29T16:22:52.442Z,100284.41
2022-07-29T16:25:20.952Z,100286.84
2022-07-29T16:27:49.292Z,100293.78
2022-07-29T16:30:17.625Z,100303.06
2022-07-29T16:32:45.916Z,100303.66
2022-07-29T16:35:14.248Z,100303.47
2022-07-29T16:37:42.563Z,100301.38
2022-07-29T16:40:12.753Z,100296.84
2022-07-29T16:42:46.897Z,100307.78
2022-07-29T16:45:16.446Z,100305.56
2022-07-29T16:47:46.511Z,100309.13
2022-07-29T16:50:14.918Z,100306.66
2022-07-29T16:52:43.260Z,100302.03
2022-07-29T16:55:13.015Z,100297.28
2022-07-29T16:57:42.665Z,100296.34
2022-07-29T17:00:12.734Z,100298.22
2022-07-29T17:02:41.164Z,100303.22
2022-07-29T17:05:12.223Z,100302.84
2022-07-29T17:07:40.894Z,100307.25
2022-07-29T17:10:10.950Z,100311.47
2022-07-29T17:12:42.035Z,100316.09
2022-07-29T17:15:12.886Z,100322.63
2022-07-29T17:17:56.414Z,100329.56
2022-07-29T17:20:26.675Z,100326.22
2022-07-29T17:22:55.369Z,100321.72
2022-07-29T17:25:25.001Z,100326.97
2022-07-29T17:28:00.591Z,100334.16
2022-07-29T17:30:29.756Z,100327.19
2022-07-29T17:32:58.154Z,100330.28
2022-07-29T17:35:43.820Z,100337.00
2022-07-29T17:38:12.183Z,100350.34
2022-07-29T17:40:40.506Z,100358.47
2022-07-29T17:43:10.273Z,100350.03
2022-07-29T17:45:48.771Z,100354.75
2022-07-29T17:48:17.617Z,100364.53
2022-07-29T17:50:46.248Z,100358.78
2022-07-29T17:53:17.016Z,100364.31
2022-07-29T17:55:46.261Z,100366.78
2022-07-29T17:58:16.696Z,100381.59
2022-07-29T18:00:45.388Z,100391.13
2022-07-29T18:03:13.793Z,100405.75
2022-07-29T18:05:42.733Z,100414.13
2022-07-29T18:08:11.743Z,100411.81
2022-07-29T18:10:41.310Z,100415.78
2022-07-29T18:13:09.708Z,100417.03
2022-07-29T18:15:39.432Z,100415.47
2022-07-29T18:18:08.494Z,100425.47
2022-07-29T18:20:36.878Z,100428.41
2022-07-29T18:23:05.189Z,100433.00
2022-07-29T18:25:33.900Z,100439.00
2022-07-29T18:28:02.365Z,100437.06
2022-07-29T18:30:33.710Z,100439.69
2022-07-29T18:33:21.428Z,100439.44
2022-07-29T18:36:11.282Z,100439.38
2022-07-29T18:38:41.113Z,100446.34
2022-07-29T18:41:09.520Z,100449.63
2022-07-29T18:43:37.844Z,100451.88
2022-07-29T18:46:06.660Z,100458.44
2022-07-29T18:48:36.850Z,100462.03
2022-07-29T18:51:09.198Z,100461.75
2022-07-29T18:53:38.482Z,100467.75
2022-07-29T18:56:06.820Z,100464.97
2022-07-29T18:58:37.047Z,100470.34
2022-07-29T19:01:05.468Z,100470.38
2022-07-29T19:03:33.836Z,100473.25
2022-07-29T19:06:03.495Z,100459.66
2022-07-29T19:08:32.757Z,100467.59
2022-07-29T19:11:01.116Z,100470.97
2022-07-29T19:13:29.593Z,100472.69
2022-07-29T19:15:58.023Z,100475.25
2022-07-29T19:18:26.467Z,100478.66
2022-07-29T19:20:54.768Z,100483.03
2022-07-29T19:23:25.655Z,100485.72
2022-07-29T19:25:54.249Z,100480.03
2022-07-29T19:28:23.112Z,100498.69
2022-07-29T19:30:51.859Z,100495.56
2022-07-29T19:33:20.864Z,100506.84
2022-07-29T19:35:52.951Z,100502.03
2022-07-29T19:38:24.670Z,100507.97
2022-07-29T19:40:53.086Z,100504.81
2022-07-29T19:43:52.093Z,100510.47
2022-07-29T19:46:09.843Z,100514.53
2022-07-29T19:48:38.276Z,100522.03
2022-07-29T19:51:06.706Z,100527.66
2022-07-29T19:53:36.357Z,100526.25
2022-07-29T19:56:05.296Z,100536.41
2022-07-29T19:58:37.435Z,100543.97
2022-07-29T20:01:10.377Z,100563.16
2022-07-29T20:03:40.668Z,100559.31
2022-07-29T20:06:09.109Z,100555.47
2022-07-29T20:08:38.797Z,100557.13
2022-07-29T20:11:07.747Z,100568.66
2022-07-29T20:13:36.116Z,100563.19
2022-07-29T20:16:08.068Z,100578.97
2022-07-29T20:18:36.995Z,100577.19
2022-07-29T20:21:05.517Z,100588.91
2022-07-29T20:23:33.979Z,100582.13
2022-07-29T20:26:08.714Z,100583.03
2022-07-29T20:28:40.181Z,100581.22
2022-07-29T20:31:08.758Z,100591.13
2022-07-29T20:33:37.153Z,100585.78
2022-07-29T20:36:07.076Z,100582.00
2022-07-29T20:38:35.448Z,100583.59
2022-07-29T20:41:05.311Z,100586.03
2022-07-29T20:43:36.060Z,100591.03
2022-07-29T20:46:07.369Z,100580.81
2022-07-29T20:48:35.736Z,100586.41
2022-07-29T20:51:04.209Z,100587.59
2022-07-29T20:53:33.719Z,100596.13
2022-07-29T20:56:02.076Z,100591.25
2022-07-29T20:58:32.604Z,100591.72
2022-07-29T21:01:01.038Z,100584.31
2022-07-29T21:03:29.357Z,100588.19
2022-07-29T21:05:57.708Z,100592.91
2022-07-29T21:08:27.528Z,100589.72
2022-07-29T21:10:56.169Z,100588.88
2022-07-29T21:13:25.501Z,100588.00
2022-07-29T21:15:59.090Z,100593.38
2022-07-29T21:18:32.579Z,100603.31
2022-07-29T21:21:02.237Z,100598.09
2022-07-29T21:23:31.159Z,100599.81
2022-07-29T21:25:59.826Z,100597.25
2022-07-29T21:28:27.173Z,100595.53
2022-07-29T21:30:58.461Z,100600.03
2022-07-29T21:33:28.475Z,100604.78
2022-07-29T21:36:35.437Z,100610.38
2022-07-29T21:38:45.855Z,100611.44
2022-07-29T21:41:15.363Z,100614.44
2022-07-29T21:43:43.672Z,100613.00
2022-07-29T21:46:14.462Z,100622.09
2022-07-29T21:48:44.672Z,100625.00
2022-07-29T21:51:13.108Z,100628.88
2022-07-29T21:53:41.606Z,100628.13
2022-07-29T21:56:14.502Z,100636.38
2022-07-29T21:58:43.400Z,100643.78
2022-07-29T22:01:13.098Z,100642.19
2022-07-29T22:03:41.427Z,100643.28
2022-07-29T22:06:16.655Z,100645.22
2022-07-29T22:08:47.785Z,100650.66
2022-07-29T22:11:16.139Z,100647.38
2022-07-29T22:13:44.451Z,100651.22
2022-07-29T22:16:15.017Z,100653.28
2022-07-29T22:18:46.667Z,100655.31
2022-07-29T22:21:15.468Z,100651.06
2022-07-29T22:23:43.767Z,100652.13
2022-07-29T22:26:12.321Z,100659.44
2022-07-29T22:28:40.696Z,100649.78
2022-07-29T22:31:09.085Z,100663.22
2022-07-29T22:33:39.096Z,100665.41
2022-07-29T22:36:08.231Z,100663.91
2022-07-29T22:38:36.521Z,100657.31
2022-07-29T22:41:05.073Z,100662.25
2022-07-29T22:43:33.951Z,100660.13
2022-07-29T22:46:02.396Z,100667.38
2022-07-29T22:48:31.245Z,100665.66
2022-07-29T22:51:01.338Z,100665.81
2022-07-29T22:53:29.699Z,100661.31
2022-07-29T22:55:58.045Z,100660.34
2022-07-29T22:58:26.503Z,100662.25
2022-07-29T23:00:55.133Z,100667.81
2022-07-29T23:03:23.799Z,100671.66
2022-07-29T23:05:52.444Z,100675.53
2022-07-29T23:08:22.254Z,100673.16
2022-07-29T23:10:50.628Z,100672.75
2022-07-29T23:13:18.960Z,100671.47
2022-07-29T23:15:47.371Z,100672.66
2022-07-29T23:18:15.950Z,100675.66
2022-07-29T23:20:45.424Z,100677.63
2022-07-29T23:23:13.959Z,100678.81
2022-07-29T23:25:43.853Z,100681.03
2022-07-29T23:28:13.271Z,100675.28
2022-07-29T23:30:42.107Z,100677.41
2022-07-29T23:33:10.476Z,100681.22
2022-07-29T23:35:38.805Z,100678.03
2022-07-29T23:38:07.412Z,100684.41
2022-07-29T23:40:35.821Z,100666.06
2022-07-29T23:43:08.797Z,100666.38
2022-07-29T23:45:44.469Z,100677.34
2022-07-29T23:48:14.505Z,100667.09
2022-07-29T23:50:43.321Z,100676.25
2022-07-29T23:53:12.095Z,100674.72
2022-07-29T23:55:40.439Z,100665.25
2022-07-29T23:58:10.161Z,100670.69
